Time;durP1;ratioP1;P1;durP2;ratioP2;P2;SDS_P1;SDS_P2;PMS_P1;PMS_P2;Temp;Humidity;BMP_temperature;BMP_pressure;BME280_temperature;BME280_humidity;BME280_pressure;Samples;Min_cycle;Max_cycle;Signal;HPM_P1;HPM_P2
2022/09/15 00:00:35;;;;;;;;;;;;;;;15.99;47.64;100238.94;5047169;28;19966;-67
2022/09/15 00:03:03;;;;;;;;;;;;;;;16.00;47.73;100240.66;5047154;28;19975;-67
2022/09/15 00:05:30;;;;;;;;;;;;;;;15.99;47.95;100249.97;5047639;28;19920;-67
2022/09/15 00:07:58;;;;;;;;;;;;;;;15.99;47.84;100244.47;5050164;28;19920;-67
2022/09/15 00:10:27;;;;;;;;;;;;;;;15.98;47.55;100251.00;5052317;28;19975;-66
2022/09/15 00:12:56;;;;;;;;;;;;;;;15.97;47.61;100257.56;5051474;28;19927;-66
2022/09/15 00:15:24;;;;;;;;;;;;;;;15.96;47.72;100262.22;5051995;28;19920;-66
2022/09/15 00:17:52;;;;;;;;;;;;;;;15.97;47.40;100260.34;5050933;28;19921;-66
2022/09/15 00:20:21;;;;;;;;;;;;;;;15.95;47.48;100262.41;5051024;28;19920;-68
2022/09/15 00:22:48;;;;;;;;;;;;;;;15.93;47.88;100257.06;5051521;28;19921;-67
2022/09/15 00:25:16;;;;;;;;;;;;;;;15.93;47.68;100257.06;5051950;28;19945;-67
2022/09/15 00:27:43;;;;;;;;;;;;;;;15.92;47.43;100258.09;5050882;28;19944;-66
2022/09/15 00:30:13;;;;;;;;;;;;;;;15.92;47.80;100254.53;5051515;28;19925;-67
2022/09/15 00:32:40;;;;;;;;;;;;;;;15.89;47.47;100256.59;5031369;28;19921;-67
2022/09/15 00:35:08;;;;;;;;;;;;;;;15.88;47.60;100254.88;5047493;28;19924;-67
2022/09/15 00:37:36;;;;;;;;;;;;;;;15.88;47.39;100252.13;5049072;28;19948;-67
2022/09/15 00:40:04;;;;;;;;;;;;;;;15.87;47.91;100257.81;5051211;28;20443;-67
2022/09/15 00:42:32;;;;;;;;;;;;;;;15.86;47.59;100259.72;5051042;28;19920;-67
2022/09/15 00:45:01;;;;;;;;;;;;;;;15.84;47.46;100253.50;5051569;28;20400;-67
2022/09/15 00:47:38;;;;;;;;;;;;;;;15.84;47.61;100258.16;5050458;28;19928;-67
2022/09/15 00:50:08;;;;;;;;;;;;;;;15.82;47.49;100250.09;5051363;28;19924;-67
2022/09/15 00:52:39;;;;;;;;;;;;;;;15.82;47.86;100260.28;5050610;28;19921;-67
2022/09/15 00:55:09;;;;;;;;;;;;;;;15.80;47.40;100256.84;5050865;28;19999;-67
2022/09/15 00:57:39;;;;;;;;;;;;;;;15.79;47.78;100266.16;5050099;28;20376;-66
2022/09/15 01:00:08;;;;;;;;;;;;;;;15.78;47.52;100262.53;5050987;28;19925;-67
2022/09/15 01:02:37;;;;;;;;;;;;;;;15.77;47.34;100266.31;5050696;28;20035;-67
2022/09/15 01:05:08;;;;;;;;;;;;;;;15.74;47.83;100258.44;5051558;28;20403;-66
2022/09/15 01:07:37;;;;;;;;;;;;;;;15.74;47.33;100254.81;5050330;28;19921;-67
2022/09/15 01:10:06;;;;;;;;;;;;;;;15.71;47.84;100256.03;5049852;28;19932;-67
2022/09/15 01:12:34;;;;;;;;;;;;;;;15.71;47.23;100253.28;5049891;28;19924;-66
2022/09/15 01:15:01;;;;;;;;;;;;;;;15.69;47.36;100260.84;5050890;28;19924;-67
2022/09/15 01:17:36;;;;;;;;;;;;;;;15.68;47.47;100258.28;5049989;28;20343;-67
2022/09/15 01:20:31;;;;;;;;;;;;;;;15.67;47.65;100242.78;5049896;28;19921;-67
2022/09/15 01:23:18;;;;;;;;;;;;;;;15.65;47.53;100250.38;5050048;28;19925;-67
2022/09/15 01:25:59;;;;;;;;;;;;;;;15.63;47.68;100249.69;5050851;28;20632;-67
2022/09/15 01:28:34;;;;;;;;;;;;;;;15.61;47.42;100252.63;5049530;28;19978;-67
2022/09/15 01:31:06;;;;;;;;;;;;;;;15.59;47.87;100248.38;5050072;28;19934;-67
2022/09/15 01:33:40;;;;;;;;;;;;;;;15.57;47.27;100243.03;5050261;28;19935;-67
2022/09/15 01:36:12;;;;;;;;;;;;;;;15.55;47.60;100250.63;5050411;28;19956;-67
2022/09/15 01:38:49;;;;;;;;;;;;;;;15.53;47.14;100244.41;5049949;28;20322;-67
2022/09/15 01:41:18;;;;;;;;;;;;;;;15.51;47.20;100243.72;5050755;28;20027;-67
2022/09/15 01:43:50;;;;;;;;;;;;;;;15.49;47.46;100249.44;5050034;28;20364;-67
2022/09/15 01:46:20;;;;;;;;;;;;;;;15.47;47.26;100243.25;5050260;28;19964;-67
2022/09/15 01:48:51;;;;;;;;;;;;;;;15.46;47.00;100248.94;5049030;28;19963;-67
2022/09/15 01:51:19;;;;;;;;;;;;;;;15.43;47.51;100246.53;5050527;28;19921;-66
2022/09/15 01:53:47;;;;;;;;;;;;;;;15.42;47.51;100253.13;5049455;28;19928;-67
2022/09/15 01:56:15;;;;;;;;;;;;;;;15.39;47.41;100246.06;5050173;28;20626;-66
2022/09/15 01:58:42;;;;;;;;;;;;;;;15.38;47.00;100254.50;5049174;28;19974;-66
2022/09/15 02:01:13;;;;;;;;;;;;;;;15.36;47.13;100248.28;5050063;28;19983;-67
2022/09/15 02:03:44;;;;;;;;;;;;;;;15.35;47.45;100249.34;5049532;28;19951;-66
2022/09/15 02:06:16;;;;;;;;;;;;;;;15.33;47.01;100249.50;5031311;28;19928;-67
2022/09/15 02:08:48;;;;;;;;;;;;;;;15.31;47.42;100250.72;5029790;28;20364;-66
2022/09/15 02:11:18;;;;;;;;;;;;;;;15.30;47.09;100258.13;5030089;28;19929;-67
2022/09/15 02:13:48;;;;;;;;;;;;;;;15.27;46.99;100261.22;5029499;28;20583;-67
2022/09/15 02:16:18;;;;;;;;;;;;;;;15.26;47.44;100264.19;5029779;28;19922;-67
2022/09/15 02:19:09;;;;;;;;;;;;;;;15.24;47.40;100264.38;5028944;28;19936;-67
2022/09/15 02:21:41;;;;;;;;;;;;;;;15.21;47.38;100253.69;5029617;28;20012;-67
2022/09/15 02:24:14;;;;;;;;;;;;;;;15.19;47.34;100257.66;5028451;28;19922;-67
2022/09/15 02:26:43;;;;;;;;;;;;;;;15.18;47.40;100251.28;5029088;28;19925;-67
2022/09/15 02:29:13;;;;;;;;;;;;;;;15.15;47.32;100251.66;5028983;28;19921;-66
2022/09/15 02:31:41;;;;;;;;;;;;;;;15.14;47.39;100252.69;5028824;28;19928;-67
2022/09/15 02:34:13;;;;;;;;;;;;;;;15.11;47.41;100258.53;5028914;28;19928;-67
2022/09/15 02:36:42;;;;;;;;;;;;;;;15.08;47.30;100254.28;5029105;28;19929;-67
2022/09/15 02:39:12;;;;;;;;;;;;;;;15.07;47.36;100262.72;5028745;28;20451;-66
2022/09/15 02:41:40;;;;;;;;;;;;;;;15.05;47.31;100256.50;5029542;28;20381;-66
2022/09/15 02:44:08;;;;;;;;;;;;;;;15.02;47.01;100257.72;5028112;28;19921;-67
2022/09/15 02:46:36;;;;;;;;;;;;;;;15.00;47.41;100262.56;5029012;28;19925;-67
2022/09/15 02:49:04;;;;;;;;;;;;;;;14.99;46.89;100263.59;5028347;28;20366;-66
2022/09/15 02:51:33;;;;;;;;;;;;;;;14.98;46.95;100261.88;5027862;28;19983;-66
2022/09/15 02:54:00;;;;;;;;;;;;;;;14.96;47.00;100263.94;5028650;28;19978;-68
2022/09/15 02:56:28;;;;;;;;;;;;;;;14.95;46.93;100258.59;5029594;28;19921;-67
2022/09/15 02:58:55;;;;;;;;;;;;;;;14.93;47.07;100264.28;5027199;28;19995;-66
2022/09/15 03:01:30;;;;;;;;;;;;;;;14.93;47.44;100257.94;5058464;22;20938;-80
2022/09/15 03:03:58;;;;;;;;;;;;;;;14.91;47.08;100258.13;5069241;28;19983;-80
2022/09/15 03:06:33;;;;;;;;;;;;;;;14.91;47.16;100265.53;5049161;28;19953;-80
2022/09/15 03:09:03;;;;;;;;;;;;;;;14.89;47.46;100254.69;5069977;28;20036;-80
2022/09/15 03:11:31;;;;;;;;;;;;;;;14.88;47.12;100254.84;5059551;28;20290;-79
2022/09/15 03:13:59;;;;;;;;;;;;;;;14.87;47.08;100258.63;5029990;28;19972;-80
2022/09/15 03:16:27;;;;;;;;;;;;;;;14.85;47.36;100249.72;5031531;28;19952;-80
2022/09/15 03:18:55;;;;;;;;;;;;;;;14.83;47.47;100240.75;5031449;28;19921;-80
2022/09/15 03:21:23;;;;;;;;;;;;;;;14.82;47.05;100247.28;5031904;28;19921;-80
2022/09/15 03:23:51;;;;;;;;;;;;;;;14.80;47.25;100258.47;5031553;28;19924;-80
2022/09/15 03:26:20;;;;;;;;;;;;;;;14.79;47.08;100266.91;5031666;28;20055;-80
2022/09/15 03:28:48;;;;;;;;;;;;;;;14.75;47.12;100289.34;5034283;28;19954;-80
2022/09/15 03:31:16;;;;;;;;;;;;;;;14.73;47.37;100277.63;5033403;28;19983;-79
2022/09/15 03:33:43;;;;;;;;;;;;;;;14.73;47.05;100269.34;5048518;28;19921;-80
2022/09/15 03:36:11;;;;;;;;;;;;;;;14.71;47.29;100274.16;5036521;28;19928;-81
2022/09/15 03:38:38;;;;;;;;;;;;;;;14.71;47.18;100273.31;5033857;28;19929;-80
2022/09/15 03:41:07;;;;;;;;;;;;;;;14.70;47.76;100271.59;5036592;28;19921;-81
2022/09/15 03:43:37;;;;;;;;;;;;;;;14.68;47.84;100276.44;5031172;28;20308;-80
2022/09/15 03:46:05;;;;;;;;;;;;;;;14.67;47.30;100270.06;5030095;28;19921;-80
2022/09/15 03:48:34;;;;;;;;;;;;;;;14.68;47.69;100276.44;5030108;28;20862;-81
2022/09/15 03:51:02;;;;;;;;;;;;;;;14.67;47.45;100281.09;5029875;28;19933;-81
2022/09/15 03:53:31;;;;;;;;;;;;;;;14.67;47.46;100280.22;5027726;28;19956;-82
2022/09/15 03:56:06;;;;;;;;;;;;;;;14.67;47.82;100280.22;5043881;28;19921;-81
2022/09/15 03:58:34;;;;;;;;;;;;;;;14.67;47.89;100280.22;5026827;28;19936;-82
2022/09/15 04:01:03;;;;;;;;;;;;;;;14.67;47.65;100277.47;5032721;28;19921;-81
2022/09/15 04:03:31;;;;;;;;;;;;;;;14.67;47.65;100274.72;5044478;28;19921;-82
2022/09/15 04:05:59;;;;;;;;;;;;;;;14.66;48.09;100276.59;5027727;28;19928;-82
2022/09/15 04:08:26;;;;;;;;;;;;;;;14.66;47.83;100273.00;5028439;28;20287;-81
2022/09/15 04:10:54;;;;;;;;;;;;;;;14.65;47.96;100277.63;5019995;28;19929;-81
2022/09/15 04:13:22;;;;;;;;;;;;;;;14.65;48.19;100276.78;5023987;28;19925;-80
2022/09/15 04:15:59;;;;;;;;;;;;;;;14.65;48.13;100282.28;5027258;28;19972;-82
2022/09/15 04:18:29;;;;;;;;;;;;;;;14.64;48.15;100278.66;5034563;28;20426;-83
2022/09/15 04:20:59;;;;;;;;;;;;;;;14.64;47.72;100278.66;5039908;28;20056;-82
2022/09/15 04:23:26;;;;;;;;;;;;;;;14.64;47.86;100280.56;5035573;28;19960;-81
2022/09/15 04:25:55;;;;;;;;;;;;;;;14.64;47.77;100273.16;5036098;28;19952;-82
2022/09/15 04:28:23;;;;;;;;;;;;;;;14.66;48.10;100278.50;5040740;28;19920;-80
2022/09/15 04:30:51;;;;;;;;;;;;;;;14.66;47.84;100281.25;5032274;28;19925;-81
2022/09/15 04:33:19;;;;;;;;;;;;;;;14.67;48.04;100271.97;5031619;28;19952;-81
2022/09/15 04:35:48;;;;;;;;;;;;;;;14.68;47.88;100268.19;5036623;28;19996;-81
2022/09/15 04:38:15;;;;;;;;;;;;;;;14.68;48.39;100271.75;5036968;28;20006;-81
2022/09/15 04:40:43;;;;;;;;;;;;;;;14.69;47.99;100270.72;5045417;28;19975;-82
2022/09/15 04:43:12;;;;;;;;;;;;;;;14.69;48.02;100278.13;5041054;28;19921;-82
2022/09/15 04:45:47;;;;;;;;;;;;;;;14.69;48.34;100262.47;5045101;28;19925;-81
2022/09/15 04:48:15;;;;;;;;;;;;;;;14.70;48.25;100275.22;5037322;28;19921;-82
2022/09/15 04:50:43;;;;;;;;;;;;;;;14.70;48.08;100279.84;5022140;28;20655;-82
2022/09/15 04:53:12;;;;;;;;;;;;;;;14.70;48.12;100277.09;5029124;28;19921;-82
2022/09/15 04:55:40;;;;;;;;;;;;;;;14.72;48.27;100275.03;5027152;28;19979;-81
2022/09/15 04:58:08;;;;;;;;;;;;;;;14.71;48.15;100273.31;5029801;28;19975;-83
2022/09/15 05:00:40;;;;;;;;;;;;;;;14.72;48.37;100277.78;5031615;28;19921;-82
2022/09/15 05:03:08;;;;;;;;;;;;;;;14.72;48.34;100275.03;5030010;28;19943;-83
2022/09/15 05:05:37;;;;;;;;;;;;;;;14.71;48.34;100274.16;5032177;28;19921;-82
2022/09/15 05:08:04;;;;;;;;;;;;;;;14.72;48.35;100278.66;5030264;28;20305;-81
2022/09/15 05:10:33;;;;;;;;;;;;;;;14.73;48.52;100274.88;5033009;28;19921;-82
2022/09/15 05:13:01;;;;;;;;;;;;;;;14.74;48.57;100272.97;5032200;28;19921;-81
2022/09/15 05:15:29;;;;;;;;;;;;;;;14.73;48.23;100280.38;5027875;28;20346;-83
2022/09/15 05:17:58;;;;;;;;;;;;;;;14.74;48.23;100279.34;5034007;28;20268;-82
2022/09/15 05:20:25;;;;;;;;;;;;;;;14.76;48.28;100279.19;5044692;28;19921;-82
2022/09/15 05:22:53;;;;;;;;;;;;;;;14.77;48.23;100291.88;5047828;28;20036;-82
2022/09/15 05:25:21;;;;;;;;;;;;;;;14.76;48.22;100293.78;5042498;28;19955;-83
2022/09/15 05:27:50;;;;;;;;;;;;;;;14.79;48.36;100291.72;5042720;28;19929;-82
2022/09/15 05:30:18;;;;;;;;;;;;;;;14.80;48.69;100297.06;5047942;28;20157;-84
2022/09/15 05:33:05;;;;;;;;;;;;;;;14.81;48.30;100300.66;5061497;28;20144;-82
2022/09/15 05:35:33;;;;;;;;;;;;;;;14.82;48.77;100300.50;5044659;28;19925;-82
2022/09/15 05:38:01;;;;;;;;;;;;;;;14.83;48.68;100306.88;5026814;28;19921;-83
2022/09/15 05:40:29;;;;;;;;;;;;;;;14.83;48.41;100302.22;5028322;28;19927;-83
2022/09/15 05:42:58;;;;;;;;;;;;;;;14.86;48.37;100306.50;5032139;28;19951;-82
2022/09/15 05:45:25;;;;;;;;;;;;;;;14.85;48.43;100294.63;5031722;28;20379;-84
2022/09/15 05:47:53;;;;;;;;;;;;;;;14.86;48.35;100306.50;5033777;28;19929;-82
2022/09/15 05:50:20;;;;;;;;;;;;;;;14.87;48.37;100305.47;5035896;28;21041;-81
2022/09/15 05:52:50;;;;;;;;;;;;;;;14.88;48.39;100304.44;5050796;28;20016;-80
2022/09/15 05:55:18;;;;;;;;;;;;;;;14.89;48.88;100308.91;5032736;28;19921;-81
2022/09/15 05:57:46;;;;;;;;;;;;;;;14.90;48.52;100307.88;5037895;28;19925;-81
2022/09/15 06:00:15;;;;;;;;;;;;;;;14.91;48.48;100313.22;5030874;28;19925;-82
2022/09/15 06:02:43;;;;;;;;;;;;;;;14.92;48.78;100312.19;5031097;28;19929;-82
2022/09/15 06:05:10;;;;;;;;;;;;;;;14.93;48.95;100310.31;5034593;28;19985;-81
2022/09/15 06:07:38;;;;;;;;;;;;;;;14.93;48.77;100305.63;5028048;28;19921;-82
2022/09/15 06:10:06;;;;;;;;;;;;;;;14.95;48.44;100306.31;5037452;28;19925;-81
2022/09/15 06:12:34;;;;;;;;;;;;;;;14.96;48.61;100309.94;5040040;28;19944;-82
2022/09/15 06:15:02;;;;;;;;;;;;;;;14.98;48.57;100319.75;5035584;28;19983;-82
2022/09/15 06:17:32;;;;;;;;;;;;;;;14.99;49.07;100323.38;5028183;28;19921;-81
2022/09/15 06:20:00;;;;;;;;;;;;;;;15.01;49.08;100324.88;5035407;28;19951;-82
2022/09/15 06:22:28;;;;;;;;;;;;;;;15.02;49.18;100325.75;5032110;28;19921;-82
2022/09/15 06:24:55;;;;;;;;;;;;;;;15.04;49.12;100331.94;5046895;28;20650;-82
2022/09/15 06:27:23;;;;;;;;;;;;;;;15.05;48.83;100325.41;5052976;28;19921;-81
2022/09/15 06:29:51;;;;;;;;;;;;;;;15.06;48.89;100332.63;5045111;28;19929;-82
2022/09/15 06:32:18;;;;;;;;;;;;;;;15.07;49.19;100329.72;5034495;28;19921;-83
2022/09/15 06:34:48;;;;;;;;;;;;;;;15.09;49.19;100330.38;5049787;28;19944;-81
2022/09/15 06:37:16;;;;;;;;;;;;;;;15.12;48.69;100329.16;5042535;28;19921;-81
2022/09/15 06:39:43;;;;;;;;;;;;;;;15.14;49.22;100332.63;5062498;28;19921;-81
2022/09/15 06:42:11;;;;;;;;;;;;;;;15.16;49.27;100330.56;5042509;28;19921;-82
2022/09/15 06:44:41;;;;;;;;;;;;;;;15.18;49.22;100336.72;5074756;28;19975;-82
2022/09/15 06:47:09;;;;;;;;;;;;;;;15.20;48.84;100331.03;5051016;28;19921;-82
2022/09/15 06:49:37;;;;;;;;;;;;;;;15.21;49.28;100333.63;5047357;28;19993;-81
2022/09/15 06:52:06;;;;;;;;;;;;;;;15.24;48.86;100337.94;5049902;28;20031;-82
2022/09/15 06:54:33;;;;;;;;;;;;;;;15.25;48.83;100329.50;5037189;28;19921;-81
2022/09/15 06:57:01;;;;;;;;;;;;;;;15.28;49.07;100344.78;5071728;28;19950;-80
2022/09/15 06:59:28;;;;;;;;;;;;;;;15.29;49.28;100339.13;5047241;28;20016;-82
2022/09/15 07:01:57;;;;;;;;;;;;;;;15.30;48.96;100343.59;5034701;28;19925;-82
2022/09/15 07:04:31;;;;;;;;;;;;;;;15.33;49.23;100356.19;5034210;28;20064;-81
2022/09/15 07:06:58;;;;;;;;;;;;;;;15.35;48.90;100352.22;5040769;28;19975;-82
2022/09/15 07:09:27;;;;;;;;;;;;;;;15.36;48.91;100351.19;5036213;28;19967;-81
2022/09/15 07:11:55;;;;;;;;;;;;;;;15.40;49.26;100351.69;5033814;28;19970;-82
2022/09/15 07:14:23;;;;;;;;;;;;;;;15.41;49.34;100356.19;5037420;28;20034;-81
2022/09/15 07:16:50;;;;;;;;;;;;;;;15.44;49.23;100353.03;5035967;28;19925;-81
2022/09/15 07:19:18;;;;;;;;;;;;;;;15.46;48.99;100350.97;5042567;28;19921;-81
2022/09/15 07:21:46;;;;;;;;;;;;;;;15.48;49.35;100352.53;5052382;28;20383;-83
2022/09/15 07:24:13;;;;;;;;;;;;;;;15.50;49.39;100358.72;5033232;28;19921;-82
2022/09/15 07:26:42;;;;;;;;;;;;;;;15.52;48.95;100364.03;5033723;28;19921;-82
2022/09/15 07:29:11;;;;;;;;;;;;;;;15.54;49.23;100367.50;5034991;28;19921;-82
2022/09/15 07:31:38;;;;;;;;;;;;;;;15.56;48.99;100361.78;5047305;28;19921;-80
2022/09/15 07:34:07;;;;;;;;;;;;;;;15.57;49.30;100364.38;5049985;28;19964;-81
2022/09/15 07:36:35;;;;;;;;;;;;;;;15.59;49.34;100373.31;5034131;28;19952;-82
2022/09/15 07:39:03;;;;;;;;;;;;;;;15.61;48.95;100378.66;5036475;28;19996;-80
2022/09/15 07:41:31;;;;;;;;;;;;;;;15.62;49.28;100386.75;5067836;28;19940;-80
2022/09/15 07:44:01;;;;;;;;;;;;;;;15.64;49.37;100392.09;5057468;28;20374;-80
2022/09/15 07:46:30;;;;;;;;;;;;;;;15.66;49.11;100392.78;5048425;28;19921;-80
2022/09/15 07:48:57;;;;;;;;;;;;;;;15.68;49.11;100387.94;5070838;28;19963;-79
2022/09/15 07:51:25;;;;;;;;;;;;;;;15.69;49.15;100396.03;5041660;28;19944;-80
2022/09/15 07:53:53;;;;;;;;;;;;;;;15.72;49.50;100401.22;5034088;28;19921;-81
2022/09/15 07:56:22;;;;;;;;;;;;;;;15.75;49.50;100405.53;5038863;28;19921;-80
2022/09/15 07:58:50;;;;;;;;;;;;;;;15.77;49.12;100412.56;5030886;28;20169;-81
2022/09/15 08:01:21;;;;;;;;;;;;;;;15.80;49.60;100412.22;5049061;28;19921;-80
2022/09/15 08:03:50;;;;;;;;;;;;;;;15.83;49.28;100416.53;5032426;28;20347;-79
2022/09/15 08:06:19;;;;;;;;;;;;;;;15.85;49.38;100418.03;5032246;28;19943;-81
2022/09/15 08:08:47;;;;;;;;;;;;;;;15.88;49.16;100417.69;5036401;28;19925;-80
2022/09/15 08:11:16;;;;;;;;;;;;;;;15.91;49.55;100416.47;5056006;28;19932;-75
2022/09/15 08:13:46;;;;;;;;;;;;;;;15.94;49.68;100412.47;5031533;28;19928;-77
2022/09/15 08:16:14;;;;;;;;;;;;;;;15.97;49.77;100420.41;5030855;28;20366;-81
2022/09/15 08:18:44;;;;;;;;;;;;;;;16.01;49.32;100416.22;5040248;28;19920;-80
2022/09/15 08:21:13;;;;;;;;;;;;;;;16.05;49.71;100415.72;5026656;28;20336;-80
2022/09/15 08:23:41;;;;;;;;;;;;;;;16.10;49.85;100418.78;5038806;28;20049;-81
2022/09/15 08:26:10;;;;;;;;;;;;;;;16.16;49.45;100429.13;5029030;28;19921;-82
2022/09/15 08:28:41;;;;;;;;;;;;;;;16.21;49.67;100434.97;5032283;28;19921;-82
2022/09/15 08:31:10;;;;;;;;;;;;;;;16.27;49.77;100438.91;5034133;28;19921;-80
2022/09/15 08:33:38;;;;;;;;;;;;;;;16.32;49.64;100441.13;5031342;28;20129;-81
2022/09/15 08:36:13;;;;;;;;;;;;;;;16.36;49.21;100440.56;5037995;28;19927;-80
2022/09/15 08:38:42;;;;;;;;;;;;;;;16.40;49.21;100447.47;5028049;28;19955;-80
2022/09/15 08:41:13;;;;;;;;;;;;;;;16.44;49.00;100445.19;5032580;28;20015;-81
2022/09/15 08:43:44;;;;;;;;;;;;;;;16.48;49.17;100435.50;5028057;28;19921;-80
2022/09/15 08:46:15;;;;;;;;;;;;;;;16.51;48.91;100443.41;5033364;28;20342;-81
2022/09/15 08:48:48;;;;;;;;;;;;;;;16.54;49.43;100446.69;5042147;28;19928;-80
2022/09/15 08:51:21;;;;;;;;;;;;;;;16.57;49.32;100449.09;5042102;28;20016;-80
2022/09/15 08:53:51;;;;;;;;;;;;;;;16.61;49.43;100449.56;5034033;28;19993;-81
2022/09/15 08:56:22;;;;;;;;;;;;;;;16.65;49.48;100456.44;5032805;28;20219;-81
2022/09/15 08:58:53;;;;;;;;;;;;;;;16.69;49.38;100462.44;5043421;28;19986;-79
2022/09/15 09:01:26;;;;;;;;;;;;;;;16.73;49.48;100461.91;5069070;22;19928;-69
2022/09/15 09:04:06;;;;;;;;;;;;;;;16.78;49.38;100467.75;5023163;28;20478;-70
2022/09/15 09:06:36;;;;;;;;;;;;;;;16.83;49.43;100462.50;5020159;28;20380;-71
2022/09/15 09:09:15;;;;;;;;;;;;;;;16.88;48.96;100461.97;5011981;28;19921;-71
2022/09/15 09:11:57;;;;;;;;;;;;;;;16.92;48.93;100455.88;5001064;28;20298;-71
2022/09/15 09:14:31;;;;;;;;;;;;;;;16.97;49.15;100461.75;4997743;28;20038;-70
2022/09/15 09:17:06;;;;;;;;;;;;;;;17.01;48.78;100459.47;5002119;28;20302;-72
2022/09/15 09:19:42;;;;;;;;;;;;;;;17.09;49.10;100458.53;5007643;28;19929;-71
2022/09/15 09:22:13;;;;;;;;;;;;;;;17.16;49.00;100465.03;4998676;28;20004;-71
2022/09/15 09:24:43;;;;;;;;;;;;;;;17.22;48.82;100454.09;5005304;28;19930;-71
2022/09/15 09:27:13;;;;;;;;;;;;;;;17.28;49.11;100453.34;5002662;28;19959;-70
2022/09/15 09:29:48;;;;;;;;;;;;;;;17.37;49.13;100466.03;5007558;28;19932;-69
2022/09/15 09:32:18;;;;;;;;;;;;;;;17.46;49.10;100463.19;5004449;28;19959;-70
2022/09/15 09:34:54;;;;;;;;;;;;;;;17.53;49.02;100462.25;5004272;28;19925;-71
2022/09/15 09:37:24;;;;;;;;;;;;;;;17.61;48.86;100472.38;5009234;28;20463;-70
2022/09/15 09:39:52;;;;;;;;;;;;;;;17.67;48.20;100460.53;5004052;28;19929;-71
2022/09/15 09:42:22;;;;;;;;;;;;;;;17.72;48.19;100467.22;5006128;28;19921;-70
2022/09/15 09:44:51;;;;;;;;;;;;;;;17.76;48.01;100465.81;5002833;28;19944;-70
2022/09/15 09:47:19;;;;;;;;;;;;;;;17.80;47.94;100466.31;5005920;28;19925;-70
2022/09/15 09:49:47;;;;;;;;;;;;;;;17.84;47.44;100464.00;5002494;28;19922;-71
2022/09/15 09:52:32;;;;;;;;;;;;;;;17.85;47.85;100468.47;5003761;28;20371;-70
2022/09/15 09:55:02;;;;;;;;;;;;;;;17.87;47.66;100469.16;4997311;28;19925;-70
2022/09/15 09:57:31;;;;;;;;;;;;;;;17.89;47.15;100473.47;5002846;28;19929;-71
2022/09/15 09:59:58;;;;;;;;;;;;;;;17.92;47.44;100473.06;4997626;28;20348;-71
2022/09/15 10:02:27;;;;;;;;;;;;;;;17.95;47.23;100469.06;5000845;28;19957;-70
2022/09/15 10:04:55;;;;;;;;;;;;;;;17.97;47.17;100462.28;5004137;28;19921;-71
2022/09/15 10:07:24;;;;;;;;;;;;;;;18.00;47.28;100458.25;5000639;28;20015;-71
2022/09/15 10:09:54;;;;;;;;;;;;;;;18.01;47.09;100452.53;4996813;28;20370;-73
2022/09/15 10:12:25;;;;;;;;;;;;;;;18.03;46.77;100457.88;5001865;28;20432;-60
2022/09/15 10:14:54;;;;;;;;;;;;;;;18.05;46.75;100451.09;5007082;28;19925;-61
2022/09/15 10:17:23;;;;;;;;;;;;;;;18.07;46.88;100454.53;5002932;28;19928;-58
2022/09/15 10:19:52;;;;;;;;;;;;;;;18.10;46.75;100458.81;4997567;28;20012;-61
2022/09/15 10:22:22;;;;;;;;;;;;;;;18.12;46.48;100462.25;5004435;28;19921;-60
2022/09/15 10:24:50;;;;;;;;;;;;;;;18.14;46.44;100455.47;4999273;28;19929;-61
2022/09/15 10:27:19;;;;;;;;;;;;;;;18.17;46.62;100457.00;4997999;28;20288;-61
2022/09/15 10:29:49;;;;;;;;;;;;;;;18.19;46.25;100449.34;5002385;28;20460;-60
2022/09/15 10:32:22;;;;;;;;;;;;;;;18.22;46.25;100457.28;5004270;28;19971;-60
2022/09/15 10:34:59;;;;;;;;;;;;;;;18.25;46.52;100448.56;4999763;28;20540;-61
2022/09/15 10:37:29;;;;;;;;;;;;;;;18.28;46.51;100448.19;5001078;28;19929;-59
2022/09/15 10:39:58;;;;;;;;;;;;;;;18.32;45.88;100451.41;5006637;28;19922;-61
2022/09/15 10:42:34;;;;;;;;;;;;;;;18.35;46.00;100460.22;5004386;28;19929;-60
2022/09/15 10:45:11;;;;;;;;;;;;;;;18.39;45.92;100453.22;4996864;28;20018;-61
2022/09/15 10:47:47;;;;;;;;;;;;;;;18.43;45.86;100454.53;4997712;28;19929;-60
2022/09/15 10:50:17;;;;;;;;;;;;;;;18.48;45.73;100456.72;4999750;28;20378;-61
2022/09/15 10:52:55;;;;;;;;;;;;;;;18.51;46.33;100457.22;5000940;28;20403;-72
2022/09/15 10:55:30;;;;;;;;;;;;;;;18.53;45.70;100459.81;5001301;28;20019;-71
2022/09/15 10:58:24;;;;;;;;;;;;;;;18.57;45.85;100451.94;4996890;28;20026;-71
2022/09/15 11:00:58;;;;;;;;;;;;;;;18.58;45.19;100446.22;4996638;28;19928;-71
2022/09/15 11:03:39;;;;;;;;;;;;;;;18.59;45.00;100447.06;4994425;28;19922;-71
2022/09/15 11:06:13;;;;;;;;;;;;;;;18.60;45.30;100434.94;5000635;28;19928;-70
2022/09/15 11:08:45;;;;;;;;;;;;;;;18.58;44.80;100451.75;4999424;28;19921;-71
2022/09/15 11:11:17;;;;;;;;;;;;;;;18.59;44.83;100455.38;4993964;28;19922;-70
2022/09/15 11:13:57;;;;;;;;;;;;;;;18.59;45.32;100455.38;5002072;28;19921;-70
2022/09/15 11:16:30;;;;;;;;;;;;;;;18.58;44.88;100465.59;4994595;28;19949;-69
2022/09/15 11:19:09;;;;;;;;;;;;;;;18.59;45.03;100467.34;5003392;28;19925;-70
2022/09/15 11:21:38;;;;;;;;;;;;;;;18.61;45.40;100462.47;4998642;28;19925;-70
2022/09/15 11:24:23;;;;;;;;;;;;;;;18.62;45.14;100458.63;4992259;28;19921;-71
2022/09/15 11:26:52;;;;;;;;;;;;;;;18.64;44.96;100456.50;4995585;28;19953;-71
2022/09/15 11:29:22;;;;;;;;;;;;;;;18.67;44.82;100458.03;4997512;28;19955;-71
2022/09/15 11:31:54;;;;;;;;;;;;;;;18.69;45.16;100464.25;5004130;28;20386;-70
2022/09/15 11:34:25;;;;;;;;;;;;;;;18.70;44.49;100460.41;4999425;28;19972;-70
2022/09/15 11:36:56;;;;;;;;;;;;;;;18.71;44.55;100468.53;4999188;28;19925;-71
2022/09/15 11:39:27;;;;;;;;;;;;;;;18.72;44.55;100470.22;5004432;28;20348;-71
2022/09/15 11:41:59;;;;;;;;;;;;;;;18.71;44.28;100467.69;5002259;28;19925;-70
2022/09/15 11:44:30;;;;;;;;;;;;;;;18.69;43.90;100465.09;5001341;28;19956;-70
2022/09/15 11:47:07;;;;;;;;;;;;;;;18.69;43.77;100475.34;5016883;28;19982;-70
2022/09/15 11:49:38;;;;;;;;;;;;;;;18.67;44.38;100463.56;5005577;28;20321;-70
2022/09/15 11:52:11;;;;;;;;;;;;;;;18.65;43.85;100471.22;5006777;28;19922;-71
2022/09/15 11:54:43;;;;;;;;;;;;;;;18.63;44.28;100465.91;5015543;28;19953;-70
2022/09/15 11:57:15;;;;;;;;;;;;;;;18.61;43.41;100467.16;5008821;28;20256;-70
2022/09/15 11:59:46;;;;;;;;;;;;;;;18.58;43.46;100471.16;5006698;28;20307;-70
2022/09/15 12:02:20;;;;;;;;;;;;;;;18.56;43.27;100476.03;5024313;28;20024;-69
2022/09/15 12:05:03;;;;;;;;;;;;;;;18.54;43.60;100471.75;5013244;28;19975;-70
2022/09/15 12:07:33;;;;;;;;;;;;;;;18.51;43.39;100473.84;5011206;28;19922;-70
2022/09/15 12:10:05;;;;;;;;;;;;;;;18.49;43.64;100466.78;5013145;28;20317;-71
2022/09/15 12:12:35;;;;;;;;;;;;;;;18.48;43.70;100470.56;5013658;28;19944;-70
2022/09/15 12:15:02;;;;;;;;;;;;;;;18.47;44.05;100478.03;5012690;28;19925;-70
2022/09/15 12:17:35;;;;;;;;;;;;;;;18.47;43.47;100479.97;5007199;28;19921;-71
2022/09/15 12:20:06;;;;;;;;;;;;;;;18.46;43.52;100483.78;5013684;28;19921;-71
2022/09/15 12:22:39;;;;;;;;;;;;;;;18.45;43.28;100487.59;5010096;28;19921;-70
2022/09/15 12:25:11;;;;;;;;;;;;;;;18.45;43.58;100482.06;5023678;28;19921;-71
2022/09/15 12:27:39;;;;;;;;;;;;;;;18.44;43.21;100486.75;5004172;28;20431;-71
2022/09/15 12:30:28;;;;;;;;;;;;;;;18.43;43.50;100481.41;5029714;28;19921;-71
2022/09/15 12:32:57;;;;;;;;;;;;;;;18.43;43.22;100486.94;5012919;28;19949;-72
2022/09/15 12:35:32;;;;;;;;;;;;;;;18.41;43.20;100489.03;5001807;28;19925;-71
2022/09/15 12:38:00;;;;;;;;;;;;;;;18.39;43.37;100480.91;5012426;28;19921;-71
2022/09/15 12:40:33;;;;;;;;;;;;;;;18.39;43.25;100492.00;5012909;28;19975;-71
2022/09/15 12:43:01;;;;;;;;;;;;;;;18.36;43.04;100488.78;5012821;28;20314;-71
2022/09/15 12:45:31;;;;;;;;;;;;;;;18.34;43.27;100488.09;5012855;28;19972;-71
2022/09/15 12:48:02;;;;;;;;;;;;;;;18.32;43.22;100490.19;5018596;28;19925;-70
2022/09/15 12:50:31;;;;;;;;;;;;;;;18.29;42.70;100502.53;5000016;28;20294;-70